Weller, Iowa
Current Conditions -  °F | °C
As of 1:35 PM on Thursday 30 Oct 2014 (Local Time) from KOXV Reporting Station
Clear Clear  
Wind Chill: 59°   Ceiling: Unl
Heat Index: 59°   Visibility: 7mi
Dew Point: 39°   Wind: 6mph
Humidity: 48%   Direction: 300°WNW
Pressure: 29.98"   Gusts: NA
Location:  41.1173°N, 92.9847°W
Report Text: KOXV 301835Z AUTO 30005KT 7SM CLR 15/04 A2998 RMK AO2
Loading
Personal Weather Stations






























Interactive Weather Map
Tropical Storm Tracking
New forecast layout! Learn more

10-Day Weather Forecast

Advertisements
Track Severe Weather on mobile